Cambridge, Minnesota
Current Conditions -  °F | °C
As of 12:15 AM on Monday 26 Jan 2015 (Local Time) from KCBG Reporting Station
Broken Clouds Broken Clouds  
Wind Chill: 16°   Ceiling: 2200
Heat Index: 25°   Visibility: 10mi
Dew Point: 16°   Wind: 8mph
Humidity: 69%   Direction: 160°SSE
Pressure: 29.9"   Gusts: NA
Location:  45.57°N, 93.22°W
Report Text: KCBG 260615Z AUTO 16007KT 10SM BKN022 M04/M09 A2990 RMK AO2
Loading
Personal Weather Stations






























Interactive Weather Map New forecast layout! Learn more

10-Day Weather Forecast

Advertisements
Track Severe Weather on mobile